sensor_id;sensor_type;location;lat;lon;timestamp;P1;durP1;ratioP1;P2;durP2;ratioP2
29548;SDS011;16487;53.094;8.800;2023-03-14T00:00:52;4.53;;;3.60;;
29548;SDS011;16487;53.094;8.800;2023-03-14T00:03:19;8.80;;;4.37;;
29548;SDS011;16487;53.094;8.800;2023-03-14T00:05:46;8.10;;;3.60;;
29548;SDS011;16487;53.094;8.800;2023-03-14T00:08:14;8.10;;;3.80;;
29548;SDS011;16487;53.094;8.800;2023-03-14T00:10:41;5.17;;;3.60;;
29548;SDS011;16487;53.094;8.800;2023-03-14T00:13:09;5.97;;;3.93;;
29548;SDS011;16487;53.094;8.800;2023-03-14T00:15:38;9.10;;;3.80;;
29548;SDS011;16487;53.094;8.800;2023-03-14T00:18:05;6.63;;;3.20;;
29548;SDS011;16487;53.094;8.800;2023-03-14T00:20:32;6.40;;;3.40;;
29548;SDS011;16487;53.094;8.800;2023-03-14T00:23:00;4.70;;;3.53;;
29548;SDS011;16487;53.094;8.800;2023-03-14T00:25:27;5.60;;;3.40;;
29548;SDS011;16487;53.094;8.800;2023-03-14T00:27:54;6.40;;;4.20;;
29548;SDS011;16487;53.094;8.800;2023-03-14T00:30:21;9.30;;;3.63;;
29548;SDS011;16487;53.094;8.800;2023-03-14T00:32:50;6.03;;;3.90;;
29548;SDS011;16487;53.094;8.800;2023-03-14T00:35:17;6.33;;;4.17;;
29548;SDS011;16487;53.094;8.800;2023-03-14T00:37:45;5.40;;;3.20;;
29548;SDS011;16487;53.094;8.800;2023-03-14T00:40:13;7.10;;;3.83;;
29548;SDS011;16487;53.094;8.800;2023-03-14T00:42:40;7.43;;;3.43;;
29548;SDS011;16487;53.094;8.800;2023-03-14T00:45:08;5.10;;;3.30;;
29548;SDS011;16487;53.094;8.800;2023-03-14T00:47:36;7.07;;;3.47;;
29548;SDS011;16487;53.094;8.800;2023-03-14T00:50:05;6.03;;;3.80;;
29548;SDS011;16487;53.094;8.800;2023-03-14T00:52:33;7.10;;;4.00;;
29548;SDS011;16487;53.094;8.800;2023-03-14T00:55:00;6.80;;;3.10;;
29548;SDS011;16487;53.094;8.800;2023-03-14T00:57:28;4.10;;;3.70;;
29548;SDS011;16487;53.094;8.800;2023-03-14T00:59:55;6.03;;;4.20;;
29548;SDS011;16487;53.094;8.800;2023-03-14T01:02:23;4.43;;;4.03;;
29548;SDS011;16487;53.094;8.800;2023-03-14T01:04:50;6.67;;;4.13;;
29548;SDS011;16487;53.094;8.800;2023-03-14T01:07:18;5.30;;;4.23;;
29548;SDS011;16487;53.094;8.800;2023-03-14T01:09:46;8.87;;;5.00;;
29548;SDS011;16487;53.094;8.800;2023-03-14T01:12:14;9.20;;;5.83;;
29548;SDS011;16487;53.094;8.800;2023-03-14T01:14:41;5.27;;;4.67;;
29548;SDS011;16487;53.094;8.800;2023-03-14T01:17:09;8.27;;;5.87;;
29548;SDS011;16487;53.094;8.800;2023-03-14T01:19:36;7.10;;;4.83;;
29548;SDS011;16487;53.094;8.800;2023-03-14T01:22:03;8.97;;;5.73;;
29548;SDS011;16487;53.094;8.800;2023-03-14T01:24:32;11.77;;;7.03;;
29548;SDS011;16487;53.094;8.800;2023-03-14T01:27:00;8.33;;;6.13;;
29548;SDS011;16487;53.094;8.800;2023-03-14T01:29:27;6.33;;;5.23;;
29548;SDS011;16487;53.094;8.800;2023-03-14T01:31:56;9.80;;;6.53;;
29548;SDS011;16487;53.094;8.800;2023-03-14T01:34:23;8.10;;;7.10;;
29548;SDS011;16487;53.094;8.800;2023-03-14T01:36:51;9.43;;;6.43;;
29548;SDS011;16487;53.094;8.800;2023-03-14T01:39:18;9.53;;;6.17;;
29548;SDS011;16487;53.094;8.800;2023-03-14T01:41:47;11.77;;;6.33;;
29548;SDS011;16487;53.094;8.800;2023-03-14T01:44:15;17.60;;;7.73;;
29548;SDS011;16487;53.094;8.800;2023-03-14T01:46:44;8.10;;;6.30;;
29548;SDS011;16487;53.094;8.800;2023-03-14T01:49:15;7.80;;;5.50;;
29548;SDS011;16487;53.094;8.800;2023-03-14T01:52:02;8.20;;;5.90;;
29548;SDS011;16487;53.094;8.800;2023-03-14T01:54:32;10.03;;;6.03;;
29548;SDS011;16487;53.094;8.800;2023-03-14T01:57:06;7.43;;;6.20;;
29548;SDS011;16487;53.094;8.800;2023-03-14T01:59:37;8.43;;;6.40;;
29548;SDS011;16487;53.094;8.800;2023-03-14T02:02:07;11.50;;;7.80;;
29548;SDS011;16487;53.094;8.800;2023-03-14T02:04:38;8.80;;;6.77;;
29548;SDS011;16487;53.094;8.800;2023-03-14T02:07:08;8.83;;;6.50;;
29548;SDS011;16487;53.094;8.800;2023-03-14T02:09:46;10.67;;;6.30;;
29548;SDS011;16487;53.094;8.800;2023-03-14T02:12:23;8.00;;;6.10;;
29548;SDS011;16487;53.094;8.800;2023-03-14T02:15:11;9.80;;;5.83;;
29548;SDS011;16487;53.094;8.800;2023-03-14T02:18:04;11.63;;;6.37;;
29548;SDS011;16487;53.094;8.800;2023-03-14T02:21:05;6.70;;;5.87;;
29548;SDS011;16487;53.094;8.800;2023-03-14T02:23:43;9.70;;;6.07;;
29548;SDS011;16487;53.094;8.800;2023-03-14T02:26:22;9.17;;;5.93;;
29548;SDS011;16487;53.094;8.800;2023-03-14T02:28:56;7.47;;;6.07;;
29548;SDS011;16487;53.094;8.800;2023-03-14T02:31:24;7.73;;;5.63;;
29548;SDS011;16487;53.094;8.800;2023-03-14T02:33:51;9.23;;;6.47;;
29548;SDS011;16487;53.094;8.800;2023-03-14T02:36:19;6.47;;;4.27;;
29548;SDS011;16487;53.094;8.800;2023-03-14T02:38:50;10.90;;;5.73;;
29548;SDS011;16487;53.094;8.800;2023-03-14T02:41:24;8.00;;;5.50;;
29548;SDS011;16487;53.094;8.800;2023-03-14T02:44:01;9.23;;;6.10;;
29548;SDS011;16487;53.094;8.800;2023-03-14T02:46:28;11.37;;;5.80;;
29548;SDS011;16487;53.094;8.800;2023-03-14T02:48:57;4.80;;;3.47;;
29548;SDS011;16487;53.094;8.800;2023-03-14T02:51:27;6.33;;;4.67;;
29548;SDS011;16487;53.094;8.800;2023-03-14T02:53:55;8.40;;;5.13;;
29548;SDS011;16487;53.094;8.800;2023-03-14T02:56:24;7.70;;;5.70;;
29548;SDS011;16487;53.094;8.800;2023-03-14T02:58:52;7.73;;;4.77;;
29548;SDS011;16487;53.094;8.800;2023-03-14T03:01:28;6.73;;;4.20;;
29548;SDS011;16487;53.094;8.800;2023-03-14T03:03:56;8.70;;;4.77;;
29548;SDS011;16487;53.094;8.800;2023-03-14T03:06:25;7.77;;;4.70;;
29548;SDS011;16487;53.094;8.800;2023-03-14T03:08:59;5.10;;;3.10;;
29548;SDS011;16487;53.094;8.800;2023-03-14T03:11:26;7.17;;;4.90;;
29548;SDS011;16487;53.094;8.800;2023-03-14T03:13:53;4.80;;;3.07;;
29548;SDS011;16487;53.094;8.800;2023-03-14T03:16:21;7.20;;;2.93;;
29548;SDS011;16487;53.094;8.800;2023-03-14T03:18:50;5.60;;;2.97;;
29548;SDS011;16487;53.094;8.800;2023-03-14T03:21:17;5.47;;;3.80;;
29548;SDS011;16487;53.094;8.800;2023-03-14T03:23:44;3.63;;;2.07;;
29548;SDS011;16487;53.094;8.800;2023-03-14T03:26:12;5.43;;;3.30;;
29548;SDS011;16487;53.094;8.800;2023-03-14T03:28:39;5.90;;;3.77;;
29548;SDS011;16487;53.094;8.800;2023-03-14T03:31:07;4.30;;;2.87;;
29548;SDS011;16487;53.094;8.800;2023-03-14T03:33:36;8.90;;;3.50;;
29548;SDS011;16487;53.094;8.800;2023-03-14T03:36:06;7.07;;;3.40;;
29548;SDS011;16487;53.094;8.800;2023-03-14T03:38:36;4.43;;;2.20;;
29548;SDS011;16487;53.094;8.800;2023-03-14T03:41:05;2.77;;;2.57;;
29548;SDS011;16487;53.094;8.800;2023-03-14T03:43:34;4.00;;;2.83;;
29548;SDS011;16487;53.094;8.800;2023-03-14T03:46:03;4.20;;;2.90;;
29548;SDS011;16487;53.094;8.800;2023-03-14T03:48:32;7.90;;;3.13;;
29548;SDS011;16487;53.094;8.800;2023-03-14T03:51:02;6.00;;;4.23;;
29548;SDS011;16487;53.094;8.800;2023-03-14T03:53:32;8.50;;;3.70;;
29548;SDS011;16487;53.094;8.800;2023-03-14T03:56:09;5.53;;;3.53;;
29548;SDS011;16487;53.094;8.800;2023-03-14T03:58:37;6.70;;;4.60;;
29548;SDS011;16487;53.094;8.800;2023-03-14T04:01:05;8.80;;;4.80;;
29548;SDS011;16487;53.094;8.800;2023-03-14T04:03:33;5.53;;;5.00;;
29548;SDS011;16487;53.094;8.800;2023-03-14T04:06:02;6.57;;;5.33;;
29548;SDS011;16487;53.094;8.800;2023-03-14T04:08:34;9.53;;;5.07;;
29548;SDS011;16487;53.094;8.800;2023-03-14T04:11:02;9.60;;;4.63;;
29548;SDS011;16487;53.094;8.800;2023-03-14T04:13:45;6.40;;;4.57;;
29548;SDS011;16487;53.094;8.800;2023-03-14T04:16:14;12.23;;;4.60;;
29548;SDS011;16487;53.094;8.800;2023-03-14T04:18:43;7.27;;;4.27;;
29548;SDS011;16487;53.094;8.800;2023-03-14T04:21:11;3.73;;;2.00;;
29548;SDS011;16487;53.094;8.800;2023-03-14T04:23:46;12.30;;;3.23;;
29548;SDS011;16487;53.094;8.800;2023-03-14T04:26:14;8.63;;;4.00;;
29548;SDS011;16487;53.094;8.800;2023-03-14T04:28:42;9.00;;;3.37;;
29548;SDS011;16487;53.094;8.800;2023-03-14T04:31:10;2.90;;;2.70;;
29548;SDS011;16487;53.094;8.800;2023-03-14T04:33:40;5.60;;;2.93;;
29548;SDS011;16487;53.094;8.800;2023-03-14T04:36:11;3.17;;;2.70;;
29548;SDS011;16487;53.094;8.800;2023-03-14T04:38:39;4.13;;;3.47;;
29548;SDS011;16487;53.094;8.800;2023-03-14T04:41:09;5.73;;;3.27;;
29548;SDS011;16487;53.094;8.800;2023-03-14T04:43:37;5.80;;;3.33;;
29548;SDS011;16487;53.094;8.800;2023-03-14T04:46:06;5.50;;;3.17;;
29548;SDS011;16487;53.094;8.800;2023-03-14T04:48:34;5.07;;;3.90;;
29548;SDS011;16487;53.094;8.800;2023-03-14T04:51:02;5.30;;;4.07;;
29548;SDS011;16487;53.094;8.800;2023-03-14T04:53:32;3.90;;;2.90;;
29548;SDS011;16487;53.094;8.800;2023-03-14T04:56:04;3.23;;;2.90;;
29548;SDS011;16487;53.094;8.800;2023-03-14T04:58:44;5.40;;;2.80;;
29548;SDS011;16487;53.094;8.800;2023-03-14T05:01:14;2.90;;;2.50;;
29548;SDS011;16487;53.094;8.800;2023-03-14T05:03:42;5.20;;;3.10;;
29548;SDS011;16487;53.094;8.800;2023-03-14T05:06:15;4.57;;;3.30;;
29548;SDS011;16487;53.094;8.800;2023-03-14T05:09:01;4.60;;;2.27;;
29548;SDS011;16487;53.094;8.800;2023-03-14T05:11:41;2.80;;;2.10;;
29548;SDS011;16487;53.094;8.800;2023-03-14T05:14:24;1.83;;;1.60;;
29548;SDS011;16487;53.094;8.800;2023-03-14T05:17:10;3.43;;;2.33;;
29548;SDS011;16487;53.094;8.800;2023-03-14T05:19:56;3.70;;;1.37;;
29548;SDS011;16487;53.094;8.800;2023-03-14T05:22:23;1.30;;;1.20;;
29548;SDS011;16487;53.094;8.800;2023-03-14T05:25:01;1.90;;;1.27;;
29548;SDS011;16487;53.094;8.800;2023-03-14T05:27:55;4.80;;;1.80;;
29548;SDS011;16487;53.094;8.800;2023-03-14T05:30:37;3.00;;;1.47;;
29548;SDS011;16487;53.094;8.800;2023-03-14T05:33:22;2.93;;;1.43;;
29548;SDS011;16487;53.094;8.800;2023-03-14T05:36:01;11.20;;;2.13;;
29548;SDS011;16487;53.094;8.800;2023-03-14T05:38:48;2.10;;;1.03;;
29548;SDS011;16487;53.094;8.800;2023-03-14T05:41:50;1.90;;;1.00;;
29548;SDS011;16487;53.094;8.800;2023-03-14T05:44:21;4.77;;;2.33;;
29548;SDS011;16487;53.094;8.800;2023-03-14T05:47:19;3.50;;;1.33;;
29548;SDS011;16487;53.094;8.800;2023-03-14T05:50:06;2.90;;;1.80;;
29548;SDS011;16487;53.094;8.800;2023-03-14T05:53:03;3.40;;;1.53;;
29548;SDS011;16487;53.094;8.800;2023-03-14T05:55:39;3.13;;;1.60;;
29548;SDS011;16487;53.094;8.800;2023-03-14T05:58:17;2.50;;;1.33;;
29548;SDS011;16487;53.094;8.800;2023-03-14T06:00:45;2.00;;;1.43;;
29548;SDS011;16487;53.094;8.800;2023-03-14T06:03:37;2.03;;;1.50;;
29548;SDS011;16487;53.094;8.800;2023-03-14T06:06:06;2.37;;;1.80;;
29548;SDS011;16487;53.094;8.800;2023-03-14T06:08:33;4.43;;;1.57;;
29548;SDS011;16487;53.094;8.800;2023-03-14T06:11:02;5.00;;;1.57;;
29548;SDS011;16487;53.094;8.800;2023-03-14T06:13:30;4.73;;;1.40;;
29548;SDS011;16487;53.094;8.800;2023-03-14T06:15:58;2.83;;;1.03;;
29548;SDS011;16487;53.094;8.800;2023-03-14T06:18:25;4.00;;;1.70;;
29548;SDS011;16487;53.094;8.800;2023-03-14T06:20:54;2.63;;;1.30;;
29548;SDS011;16487;53.094;8.800;2023-03-14T06:23:25;1.83;;;1.10;;
29548;SDS011;16487;53.094;8.800;2023-03-14T06:25:53;4.73;;;1.77;;
29548;SDS011;16487;53.094;8.800;2023-03-14T06:28:23;3.73;;;1.20;;
29548;SDS011;16487;53.094;8.800;2023-03-14T06:30:53;3.40;;;1.00;;
29548;SDS011;16487;53.094;8.800;2023-03-14T06:33:20;3.20;;;1.63;;
29548;SDS011;16487;53.094;8.800;2023-03-14T06:35:47;1.43;;;1.33;;
29548;SDS011;16487;53.094;8.800;2023-03-14T06:38:16;2.10;;;1.20;;
29548;SDS011;16487;53.094;8.800;2023-03-14T06:40:43;1.00;;;0.87;;
29548;SDS011;16487;53.094;8.800;2023-03-14T06:43:15;3.10;;;1.20;;
29548;SDS011;16487;53.094;8.800;2023-03-14T06:45:44;1.73;;;1.03;;
29548;SDS011;16487;53.094;8.800;2023-03-14T06:48:11;2.30;;;1.30;;
29548;SDS011;16487;53.094;8.800;2023-03-14T06:50:45;3.20;;;1.20;;
29548;SDS011;16487;53.094;8.800;2023-03-14T06:53:15;3.77;;;1.90;;
29548;SDS011;16487;53.094;8.800;2023-03-14T06:55:43;3.07;;;1.77;;
29548;SDS011;16487;53.094;8.800;2023-03-14T06:58:11;7.43;;;3.90;;
29548;SDS011;16487;53.094;8.800;2023-03-14T07:00:42;2.00;;;1.47;;
29548;SDS011;16487;53.094;8.800;2023-03-14T07:03:12;2.40;;;1.63;;
29548;SDS011;16487;53.094;8.800;2023-03-14T07:05:43;3.10;;;1.53;;
29548;SDS011;16487;53.094;8.800;2023-03-14T07:08:11;1.70;;;1.10;;
29548;SDS011;16487;53.094;8.800;2023-03-14T07:10:41;6.03;;;2.30;;
29548;SDS011;16487;53.094;8.800;2023-03-14T07:13:09;2.53;;;1.43;;
29548;SDS011;16487;53.094;8.800;2023-03-14T07:15:47;4.83;;;1.87;;
29548;SDS011;16487;53.094;8.800;2023-03-14T07:18:15;9.47;;;2.37;;
29548;SDS011;16487;53.094;8.800;2023-03-14T07:20:44;2.83;;;1.50;;
29548;SDS011;16487;53.094;8.800;2023-03-14T07:23:13;2.60;;;2.40;;
29548;SDS011;16487;53.094;8.800;2023-03-14T07:25:48;5.37;;;1.87;;
29548;SDS011;16487;53.094;8.800;2023-03-14T07:28:18;2.23;;;1.33;;
29548;SDS011;16487;53.094;8.800;2023-03-14T07:30:47;4.60;;;2.13;;
29548;SDS011;16487;53.094;8.800;2023-03-14T07:33:22;3.97;;;2.17;;
29548;SDS011;16487;53.094;8.800;2023-03-14T07:35:50;5.00;;;2.27;;
29548;SDS011;16487;53.094;8.800;2023-03-14T07:38:17;6.13;;;1.90;;
29548;SDS011;16487;53.094;8.800;2023-03-14T07:41:08;3.73;;;2.43;;
29548;SDS011;16487;53.094;8.800;2023-03-14T07:43:41;6.00;;;2.23;;
29548;SDS011;16487;53.094;8.800;2023-03-14T07:46:09;2.50;;;1.67;;
29548;SDS011;16487;53.094;8.800;2023-03-14T07:48:36;4.83;;;2.30;;
29548;SDS011;16487;53.094;8.800;2023-03-14T07:51:04;3.20;;;1.70;;
29548;SDS011;16487;53.094;8.800;2023-03-14T07:53:32;4.93;;;1.90;;
29548;SDS011;16487;53.094;8.800;2023-03-14T07:55:59;1.60;;;1.50;;
29548;SDS011;16487;53.094;8.800;2023-03-14T07:58:27;11.17;;;2.20;;
29548;SDS011;16487;53.094;8.800;2023-03-14T08:00:55;2.83;;;1.30;;
29548;SDS011;16487;53.094;8.800;2023-03-14T08:03:22;3.30;;;1.43;;
29548;SDS011;16487;53.094;8.800;2023-03-14T08:05:50;2.60;;;1.67;;
29548;SDS011;16487;53.094;8.800;2023-03-14T08:08:17;3.83;;;1.47;;
29548;SDS011;16487;53.094;8.800;2023-03-14T08:10:45;4.83;;;1.70;;
29548;SDS011;16487;53.094;8.800;2023-03-14T08:13:12;3.50;;;1.33;;
29548;SDS011;16487;53.094;8.800;2023-03-14T08:15:41;5.50;;;2.27;;
29548;SDS011;16487;53.094;8.800;2023-03-14T08:18:09;5.33;;;2.20;;
29548;SDS011;16487;53.094;8.800;2023-03-14T08:20:36;4.10;;;2.50;;
29548;SDS011;16487;53.094;8.800;2023-03-14T08:23:03;7.13;;;2.00;;
29548;SDS011;16487;53.094;8.800;2023-03-14T08:25:31;2.33;;;1.30;;
29548;SDS011;16487;53.094;8.800;2023-03-14T08:27:58;2.50;;;1.77;;
29548;SDS011;16487;53.094;8.800;2023-03-14T08:30:25;7.57;;;2.33;;
29548;SDS011;16487;53.094;8.800;2023-03-14T08:32:54;4.70;;;2.53;;
29548;SDS011;16487;53.094;8.800;2023-03-14T08:35:23;6.60;;;2.40;;
29548;SDS011;16487;53.094;8.800;2023-03-14T08:37:51;3.40;;;1.70;;
29548;SDS011;16487;53.094;8.800;2023-03-14T08:40:18;7.03;;;2.10;;
29548;SDS011;16487;53.094;8.800;2023-03-14T08:42:45;3.33;;;2.20;;
29548;SDS011;16487;53.094;8.800;2023-03-14T08:45:13;2.97;;;1.70;;
29548;SDS011;16487;53.094;8.800;2023-03-14T08:47:42;2.77;;;1.20;;
29548;SDS011;16487;53.094;8.800;2023-03-14T08:50:11;2.93;;;1.60;;
29548;SDS011;16487;53.094;8.800;2023-03-14T08:52:42;3.23;;;1.43;;
29548;SDS011;16487;53.094;8.800;2023-03-14T08:55:10;4.13;;;1.90;;
29548;SDS011;16487;53.094;8.800;2023-03-14T08:57:37;4.50;;;2.00;;
29548;SDS011;16487;53.094;8.800;2023-03-14T09:00:05;4.13;;;1.57;;
29548;SDS011;16487;53.094;8.800;2023-03-14T09:02:33;1.57;;;1.47;;
29548;SDS011;16487;53.094;8.800;2023-03-14T09:05:01;3.20;;;1.57;;
29548;SDS011;16487;53.094;8.800;2023-03-14T09:07:30;3.27;;;2.07;;
29548;SDS011;16487;53.094;8.800;2023-03-14T09:09:57;3.50;;;1.33;;
29548;SDS011;16487;53.094;8.800;2023-03-14T09:12:25;2.30;;;1.30;;
29548;SDS011;16487;53.094;8.800;2023-03-14T09:14:53;2.87;;;1.23;;
29548;SDS011;16487;53.094;8.800;2023-03-14T09:17:21;5.47;;;1.43;;
29548;SDS011;16487;53.094;8.800;2023-03-14T09:19:48;1.03;;;0.50;;
29548;SDS011;16487;53.094;8.800;2023-03-14T09:22:16;2.77;;;0.50;;
29548;SDS011;16487;53.094;8.800;2023-03-14T09:24:45;3.33;;;0.57;;
29548;SDS011;16487;53.094;8.800;2023-03-14T09:27:13;4.27;;;1.00;;
29548;SDS011;16487;53.094;8.800;2023-03-14T09:29:40;1.20;;;0.57;;
29548;SDS011;16487;53.094;8.800;2023-03-14T09:32:08;4.50;;;1.10;;
29548;SDS011;16487;53.094;8.800;2023-03-14T09:34:35;1.03;;;0.80;;
29548;SDS011;16487;53.094;8.800;2023-03-14T09:37:03;2.00;;;0.83;;
29548;SDS011;16487;53.094;8.800;2023-03-14T09:39:30;3.00;;;1.13;;
29548;SDS011;16487;53.094;8.800;2023-03-14T09:41:59;3.40;;;0.97;;
29548;SDS011;16487;53.094;8.800;2023-03-14T09:44:30;4.10;;;0.93;;
29548;SDS011;16487;53.094;8.800;2023-03-14T09:47:00;1.70;;;0.70;;
29548;SDS011;16487;53.094;8.800;2023-03-14T09:49:32;2.67;;;1.20;;
29548;SDS011;16487;53.094;8.800;2023-03-14T09:52:02;1.77;;;1.03;;
29548;SDS011;16487;53.094;8.800;2023-03-14T09:54:38;1.97;;;1.03;;
29548;SDS011;16487;53.094;8.800;2023-03-14T09:57:12;1.70;;;0.50;;
29548;SDS011;16487;53.094;8.800;2023-03-14T09:59:42;0.80;;;0.80;;
29548;SDS011;16487;53.094;8.800;2023-03-14T10:02:13;0.63;;;0.50;;
29548;SDS011;16487;53.094;8.800;2023-03-14T10:04:43;0.80;;;0.50;;
29548;SDS011;16487;53.094;8.800;2023-03-14T10:07:13;1.43;;;0.40;;
29548;SDS011;16487;53.094;8.800;2023-03-14T10:09:43;3.80;;;0.50;;
29548;SDS011;16487;53.094;8.800;2023-03-14T10:12:12;0.83;;;0.30;;
29548;SDS011;16487;53.094;8.800;2023-03-14T10:14:44;6.90;;;1.03;;
29548;SDS011;16487;53.094;8.800;2023-03-14T10:17:14;1.77;;;0.80;;
29548;SDS011;16487;53.094;8.800;2023-03-14T10:19:50;2.17;;;0.50;;
29548;SDS011;16487;53.094;8.800;2023-03-14T10:22:19;0.80;;;0.40;;
29548;SDS011;16487;53.094;8.800;2023-03-14T10:24:50;0.50;;;0.30;;
29548;SDS011;16487;53.094;8.800;2023-03-14T10:27:22;2.77;;;1.10;;
29548;SDS011;16487;53.094;8.800;2023-03-14T10:29:54;0.80;;;0.70;;
29548;SDS011;16487;53.094;8.800;2023-03-14T10:32:29;2.30;;;0.90;;
29548;SDS011;16487;53.094;8.800;2023-03-14T10:35:04;0.83;;;0.70;;
29548;SDS011;16487;53.094;8.800;2023-03-14T10:37:34;1.50;;;0.80;;
29548;SDS011;16487;53.094;8.800;2023-03-14T10:40:03;0.50;;;0.47;;
29548;SDS011;16487;53.094;8.800;2023-03-14T10:42:33;0.60;;;0.60;;
29548;SDS011;16487;53.094;8.800;2023-03-14T10:45:07;0.93;;;0.77;;
29548;SDS011;16487;53.094;8.800;2023-03-14T10:48:05;1.20;;;0.50;;
29548;SDS011;16487;53.094;8.800;2023-03-14T10:50:47;0.90;;;0.60;;
29548;SDS011;16487;53.094;8.800;2023-03-14T10:53:17;1.00;;;0.43;;
29548;SDS011;16487;53.094;8.800;2023-03-14T10:55:44;0.57;;;0.33;;
29548;SDS011;16487;53.094;8.800;2023-03-14T10:58:20;0.50;;;0.50;;
29548;SDS011;16487;53.094;8.800;2023-03-14T11:00:51;1.20;;;0.80;;
29548;SDS011;16487;53.094;8.800;2023-03-14T11:03:25;3.40;;;0.87;;
29548;SDS011;16487;53.094;8.800;2023-03-14T11:05:59;1.90;;;1.17;;
29548;SDS011;16487;53.094;8.800;2023-03-14T11:08:35;1.90;;;0.73;;
29548;SDS011;16487;53.094;8.800;2023-03-14T11:11:11;1.43;;;0.60;;
29548;SDS011;16487;53.094;8.800;2023-03-14T11:13:45;1.93;;;1.00;;
29548;SDS011;16487;53.094;8.800;2023-03-14T11:16:22;1.63;;;0.83;;
29548;SDS011;16487;53.094;8.800;2023-03-14T11:19:00;2.00;;;1.07;;
29548;SDS011;16487;53.094;8.800;2023-03-14T11:21:40;6.20;;;1.40;;
29548;SDS011;16487;53.094;8.800;2023-03-14T11:27:16;2.67;;;1.03;;
29548;SDS011;16487;53.094;8.800;2023-03-14T11:29:49;2.27;;;0.60;;
29548;SDS011;16487;53.094;8.800;2023-03-14T11:32:23;6.53;;;1.40;;
29548;SDS011;16487;53.094;8.800;2023-03-14T11:34:58;3.13;;;1.50;;
29548;SDS011;16487;53.094;8.800;2023-03-14T11:37:32;7.00;;;1.33;;
29548;SDS011;16487;53.094;8.800;2023-03-14T11:40:02;3.00;;;1.27;;
29548;SDS011;16487;53.094;8.800;2023-03-14T11:42:39;8.00;;;1.80;;
29548;SDS011;16487;53.094;8.800;2023-03-14T11:45:14;6.53;;;1.43;;
29548;SDS011;16487;53.094;8.800;2023-03-14T11:47:46;2.50;;;1.30;;
29548;SDS011;16487;53.094;8.800;2023-03-14T11:50:21;5.57;;;2.37;;
29548;SDS011;16487;53.094;8.800;2023-03-14T11:52:53;17.63;;;2.20;;
29548;SDS011;16487;53.094;8.800;2023-03-14T11:55:26;4.83;;;1.40;;
29548;SDS011;16487;53.094;8.800;2023-03-14T11:57:58;13.27;;;2.67;;
29548;SDS011;16487;53.094;8.800;2023-03-14T12:00:31;4.37;;;1.20;;
29548;SDS011;16487;53.094;8.800;2023-03-14T12:03:00;19.57;;;2.40;;
29548;SDS011;16487;53.094;8.800;2023-03-14T12:05:46;6.57;;;1.70;;
29548;SDS011;16487;53.094;8.800;2023-03-14T12:08:33;7.80;;;1.30;;
29548;SDS011;16487;53.094;8.800;2023-03-14T12:11:09;7.90;;;1.90;;
29548;SDS011;16487;53.094;8.800;2023-03-14T12:13:39;3.43;;;1.03;;
29548;SDS011;16487;53.094;8.800;2023-03-14T12:16:23;8.20;;;3.23;;
29548;SDS011;16487;53.094;8.800;2023-03-14T12:18:56;4.87;;;1.50;;
29548;SDS011;16487;53.094;8.800;2023-03-14T12:21:42;7.87;;;3.97;;
29548;SDS011;16487;53.094;8.800;2023-03-14T12:24:16;6.97;;;1.90;;
29548;SDS011;16487;53.094;8.800;2023-03-14T12:26:48;13.87;;;3.23;;
29548;SDS011;16487;53.094;8.800;2023-03-14T12:29:19;7.90;;;2.10;;
29548;SDS011;16487;53.094;8.800;2023-03-14T12:31:49;9.90;;;2.20;;
29548;SDS011;16487;53.094;8.800;2023-03-14T12:34:32;7.80;;;1.87;;
29548;SDS011;16487;53.094;8.800;2023-03-14T12:39:59;12.50;;;2.20;;
29548;SDS011;16487;53.094;8.800;2023-03-14T12:42:42;6.60;;;2.80;;
29548;SDS011;16487;53.094;8.800;2023-03-14T12:45:28;8.13;;;2.40;;
29548;SDS011;16487;53.094;8.800;2023-03-14T12:48:02;4.73;;;1.63;;
29548;SDS011;16487;53.094;8.800;2023-03-14T12:50:37;11.53;;;1.97;;
29548;SDS011;16487;53.094;8.800;2023-03-14T12:56:16;6.30;;;2.57;;
29548;SDS011;16487;53.094;8.800;2023-03-14T12:58:53;5.13;;;1.30;;
29548;SDS011;16487;53.094;8.800;2023-03-14T13:01:37;4.80;;;1.20;;
29548;SDS011;16487;53.094;8.800;2023-03-14T13:04:15;5.50;;;1.40;;
29548;SDS011;16487;53.094;8.800;2023-03-14T13:06:52;6.20;;;1.87;;
29548;SDS011;16487;53.094;8.800;2023-03-14T13:09:34;2.17;;;0.70;;
29548;SDS011;16487;53.094;8.800;2023-03-14T13:12:03;3.60;;;1.20;;
29548;SDS011;16487;53.094;8.800;2023-03-14T13:14:40;5.30;;;1.50;;
29548;SDS011;16487;53.094;8.800;2023-03-14T13:17:10;3.10;;;1.60;;
29548;SDS011;16487;53.094;8.800;2023-03-14T13:20:02;6.83;;;1.50;;
29548;SDS011;16487;53.094;8.800;2023-03-14T13:22:34;9.50;;;1.30;;
29548;SDS011;16487;53.094;8.800;2023-03-14T13:25:02;4.20;;;1.90;;
29548;SDS011;16487;53.094;8.800;2023-03-14T13:27:31;5.27;;;1.10;;
29548;SDS011;16487;53.094;8.800;2023-03-14T13:30:05;9.57;;;2.40;;
29548;SDS011;16487;53.094;8.800;2023-03-14T13:32:41;3.03;;;1.00;;
29548;SDS011;16487;53.094;8.800;2023-03-14T13:35:15;9.47;;;2.00;;
29548;SDS011;16487;53.094;8.800;2023-03-14T13:37:44;4.17;;;1.30;;
29548;SDS011;16487;53.094;8.800;2023-03-14T13:40:24;2.40;;;0.70;;
29548;SDS011;16487;53.094;8.800;2023-03-14T13:43:01;4.40;;;1.00;;
29548;SDS011;16487;53.094;8.800;2023-03-14T13:45:41;3.37;;;1.00;;
29548;SDS011;16487;53.094;8.800;2023-03-14T13:48:11;9.60;;;2.20;;
29548;SDS011;16487;53.094;8.800;2023-03-14T13:50:45;11.90;;;2.00;;
29548;SDS011;16487;53.094;8.800;2023-03-14T13:53:16;3.20;;;1.27;;
29548;SDS011;16487;53.094;8.800;2023-03-14T13:55:43;6.23;;;1.80;;
29548;SDS011;16487;53.094;8.800;2023-03-14T13:58:12;6.83;;;1.10;;
29548;SDS011;16487;53.094;8.800;2023-03-14T14:00:53;8.60;;;1.73;;
29548;SDS011;16487;53.094;8.800;2023-03-14T14:03:26;7.70;;;2.23;;
29548;SDS011;16487;53.094;8.800;2023-03-14T14:05:56;1.67;;;0.73;;
29548;SDS011;16487;53.094;8.800;2023-03-14T14:08:24;3.60;;;0.97;;
29548;SDS011;16487;53.094;8.800;2023-03-14T14:10:54;4.90;;;1.17;;
29548;SDS011;16487;53.094;8.800;2023-03-14T14:13:25;7.57;;;0.90;;
29548;SDS011;16487;53.094;8.800;2023-03-14T14:15:56;3.97;;;1.27;;
29548;SDS011;16487;53.094;8.800;2023-03-14T14:18:27;7.60;;;2.00;;
29548;SDS011;16487;53.094;8.800;2023-03-14T14:20:59;4.97;;;1.30;;
29548;SDS011;16487;53.094;8.800;2023-03-14T14:23:27;2.50;;;0.97;;
29548;SDS011;16487;53.094;8.800;2023-03-14T14:25:56;7.47;;;2.47;;
29548;SDS011;16487;53.094;8.800;2023-03-14T14:28:26;3.53;;;0.70;;
29548;SDS011;16487;53.094;8.800;2023-03-14T14:31:02;2.77;;;1.03;;
29548;SDS011;16487;53.094;8.800;2023-03-14T14:33:38;4.33;;;1.00;;
29548;SDS011;16487;53.094;8.800;2023-03-14T14:36:18;3.33;;;1.63;;
29548;SDS011;16487;53.094;8.800;2023-03-14T14:38:51;5.40;;;1.27;;
29548;SDS011;16487;53.094;8.800;2023-03-14T14:41:20;6.73;;;1.23;;
29548;SDS011;16487;53.094;8.800;2023-03-14T14:43:48;3.93;;;1.00;;
29548;SDS011;16487;53.094;8.800;2023-03-14T14:46:18;3.90;;;1.23;;
29548;SDS011;16487;53.094;8.800;2023-03-14T14:48:46;2.10;;;0.90;;
29548;SDS011;16487;53.094;8.800;2023-03-14T14:51:24;6.60;;;1.10;;
29548;SDS011;16487;53.094;8.800;2023-03-14T14:54:02;3.50;;;1.40;;
29548;SDS011;16487;53.094;8.800;2023-03-14T14:56:36;3.50;;;1.07;;
29548;SDS011;16487;53.094;8.800;2023-03-14T14:59:04;3.50;;;1.17;;
29548;SDS011;16487;53.094;8.800;2023-03-14T15:01:34;6.20;;;1.67;;
29548;SDS011;16487;53.094;8.800;2023-03-14T15:04:04;2.87;;;1.30;;
29548;SDS011;16487;53.094;8.800;2023-03-14T15:06:38;6.40;;;2.07;;
29548;SDS011;16487;53.094;8.800;2023-03-14T15:09:09;3.00;;;1.77;;
29548;SDS011;16487;53.094;8.800;2023-03-14T15:11:37;4.10;;;1.50;;
29548;SDS011;16487;53.094;8.800;2023-03-14T15:14:04;5.90;;;1.77;;
29548;SDS011;16487;53.094;8.800;2023-03-14T15:16:31;8.17;;;0.80;;
29548;SDS011;16487;53.094;8.800;2023-03-14T15:19:00;8.27;;;2.23;;
29548;SDS011;16487;53.094;8.800;2023-03-14T15:21:42;3.10;;;0.87;;
29548;SDS011;16487;53.094;8.800;2023-03-14T15:24:09;3.03;;;1.20;;